createdAt,value
2019-02-06T19:06:15.408Z,4.69
2019-02-06T19:07:16.770Z,4.64
2019-02-06T19:08:18.962Z,4.68
2019-02-06T19:09:20.322Z,4.68
2019-02-06T19:10:21.757Z,4.68
2019-02-06T19:11:24.582Z,4.67
2019-02-06T19:12:25.289Z,4.74
2019-02-06T19:13:26.695Z,4.72
2019-02-06T19:14:28.151Z,4.67
2019-02-06T19:15:32.487Z,4.67
2019-02-06T19:16:33.924Z,4.68
2019-02-06T19:17:35.417Z,4.69
2019-02-06T19:18:37.250Z,4.71
2019-02-06T19:19:38.325Z,4.69
2019-02-06T19:20:39.785Z,4.71
2019-02-06T19:21:41.232Z,4.83
2019-02-06T19:22:43.693Z,4.75
2019-02-06T19:23:45.398Z,4.67
2019-02-06T19:24:46.914Z,4.67
2019-02-06T19:25:48.994Z,4.79
2019-02-06T19:26:52.913Z,4.80
2019-02-06T19:27:56.236Z,4.83
2019-02-06T19:28:55.925Z,4.79
2019-02-06T19:29:57.483Z,4.88
2019-02-06T19:30:58.946Z,4.88
2019-02-06T19:32:01.265Z,4.87
2019-02-06T19:33:02.774Z,4.93
2019-02-06T19:34:04.375Z,4.83
2019-02-06T19:35:05.832Z,4.90
2019-02-06T19:36:07.320Z,4.93
2019-02-06T19:37:09.461Z,4.96
2019-02-06T19:38:10.971Z,4.93
2019-02-06T19:39:13.369Z,4.94
2019-02-06T19:40:14.831Z,4.94
2019-02-06T19:41:17.052Z,4.93
2019-02-06T19:42:19.273Z,4.88
2019-02-06T19:43:21.334Z,4.91
2019-02-06T19:44:24.650Z,5.01
2019-02-06T19:45:26.208Z,4.97
2019-02-06T19:46:28.880Z,5.05
2019-02-06T19:47:31.922Z,4.96
2019-02-06T19:48:34.648Z,4.97
2019-02-06T19:49:37.888Z,5.06
2019-02-06T19:50:38.413Z,5.06
2019-02-06T19:51:42.431Z,5.11
2019-02-06T19:52:45.498Z,5.06
2019-02-06T19:53:48.408Z,5.14
2019-02-06T19:54:49.967Z,5.12
2019-02-06T19:55:52.651Z,5.05
2019-02-06T19:56:55.797Z,5.06
2019-02-06T19:57:58.207Z,5.04
2019-02-06T19:58:59.791Z,5.17
2019-02-06T20:00:02.527Z,5.12
2019-02-06T20:01:04.917Z,5.17
2019-02-06T20:02:09.161Z,5.19
2019-02-06T20:03:10.738Z,5.14
2019-02-06T20:04:13.737Z,5.12
2019-02-06T20:05:15.273Z,5.19
2019-02-06T20:06:16.792Z,5.14
2019-02-06T20:07:19.586Z,5.09
2019-02-06T20:08:23.459Z,5.17
2019-02-06T20:09:30.365Z,5.17
2019-02-06T20:10:30.460Z,5.19
2019-02-06T20:11:34.263Z,5.15
2019-02-06T20:12:37.728Z,5.12
2019-02-06T20:13:40.010Z,5.19
2019-02-06T20:14:42.522Z,5.20
2019-02-06T20:15:45.482Z,5.17
2019-02-06T20:16:46.992Z,5.15
2019-02-06T20:17:50.322Z,5.14
2019-02-06T20:18:52.217Z,5.15
2019-02-06T20:20:03.199Z,5.12
2019-02-06T20:21:07.010Z,5.15
2019-02-06T20:22:09.782Z,5.14
2019-02-06T20:23:17.015Z,5.05
2019-02-06T20:24:20.696Z,5.15
2019-02-06T20:25:26.555Z,5.11
2019-02-06T20:26:31.862Z,5.09
2019-02-06T20:27:36.143Z,5.12
2019-02-06T20:28:39.976Z,5.19
2019-02-06T20:29:44.945Z,5.15
2019-02-06T20:30:48.171Z,5.24
2019-02-06T20:31:51.164Z,5.22
2019-02-06T20:32:54.915Z,5.23
2019-02-06T20:33:57.333Z,5.24
2019-02-06T20:35:01.070Z,5.19
2019-02-06T20:36:06.017Z,5.23
2019-02-06T20:37:10.828Z,5.26
2019-02-06T20:38:14.266Z,5.22
2019-02-06T20:39:18.395Z,5.20
2019-02-06T20:40:25.823Z,5.20
2019-02-06T20:41:30.436Z,5.22
2019-02-06T20:42:33.396Z,5.24
2019-02-06T20:43:37.425Z,5.22
2019-02-06T20:44:43.024Z,5.26
2019-02-06T20:45:46.750Z,5.14
2019-02-06T20:46:51.430Z,5.24
2019-02-06T20:47:55.087Z,5.20
2019-02-06T20:49:00.996Z,5.22
2019-02-06T20:50:06.662Z,5.23
2019-02-06T20:51:10.221Z,5.22
2019-02-06T20:52:12.682Z,5.24
2019-02-06T20:53:17.464Z,5.14
2019-02-06T20:54:20.965Z,5.22
2019-02-06T20:55:25.023Z,5.23
2019-02-06T20:56:32.328Z,5.22
2019-02-06T20:57:41.105Z,5.23
2019-02-06T20:58:40.517Z,5.20
2019-02-06T20:59:45.423Z,5.27
2019-02-06T21:00:51.566Z,5.23
2019-02-06T21:01:55.462Z,5.30
2019-02-06T21:02:59.765Z,5.24
2019-02-06T21:04:08.057Z,5.27
2019-02-06T21:05:10.673Z,5.38
2019-02-06T21:06:15.653Z,5.37
2019-02-06T21:07:19.239Z,5.35
2019-02-06T21:08:23.070Z,5.37
2019-02-06T21:09:27.586Z,5.35
2019-02-06T21:10:32.273Z,5.35
2019-02-06T21:11:37.328Z,5.35
2019-02-06T21:12:40.532Z,5.38
2019-02-06T21:13:44.824Z,5.40
2019-02-06T21:14:47.240Z,5.35
2019-02-06T21:15:50.799Z,5.32
2019-02-06T21:16:56.313Z,5.29
2019-02-06T21:17:58.863Z,5.32
2019-02-06T21:19:02.454Z,5.30
2019-02-06T21:20:05.798Z,5.29
2019-02-06T21:21:10.985Z,5.29
2019-02-06T21:22:13.597Z,5.29
2019-02-06T21:23:17.810Z,5.26
2019-02-06T21:24:23.394Z,5.30
2019-02-06T21:25:29.641Z,5.38
2019-02-06T21:26:35.402Z,5.41
2019-02-06T21:27:39.689Z,5.37
2019-02-06T21:28:41.965Z,5.35
2019-02-06T21:29:45.250Z,5.38
2019-02-06T21:30:49.512Z,5.40
2019-02-06T21:31:53.658Z,5.41
2019-02-06T21:32:58.080Z,5.45
2019-02-06T21:34:02.481Z,5.49
2019-02-06T21:35:06.084Z,5.35
2019-02-06T21:36:11.725Z,5.41
2019-02-06T21:37:14.690Z,5.41
2019-02-06T21:38:18.902Z,5.51
2019-02-06T21:39:24.164Z,5.47
2019-02-06T21:40:28.964Z,5.45
2019-02-06T21:41:30.893Z,5.51
2019-02-06T21:42:35.755Z,5.42
2019-02-06T21:43:43.799Z,5.56
2019-02-06T21:44:40.038Z,5.48
2019-02-06T21:45:44.587Z,5.49
2019-02-06T21:46:49.840Z,5.52
2019-02-06T21:47:51.232Z,5.48
2019-02-06T21:48:54.927Z,5.55
2019-02-06T21:49:58.228Z,5.49
2019-02-06T21:51:01.826Z,5.56
2019-02-06T21:52:05.729Z,5.51
2019-02-06T21:53:11.272Z,5.63
2019-02-06T21:54:15.377Z,5.52
2019-02-06T21:55:19.525Z,5.56
2019-02-06T21:56:23.092Z,5.62
2019-02-06T21:57:25.776Z,5.56
2019-02-06T21:58:32.035Z,5.51
2019-02-06T21:59:37.271Z,5.65
2019-02-06T22:00:41.577Z,5.55
2019-02-06T22:01:42.939Z,5.60
2019-02-06T22:02:44.348Z,5.63
2019-02-06T22:03:45.765Z,5.63
2019-02-06T22:04:47.185Z,5.70
2019-02-06T22:05:48.576Z,5.74
2019-02-06T22:06:49.995Z,5.60
2019-02-06T22:07:55.949Z,5.69
2019-02-06T22:09:00.115Z,5.69
2019-02-06T22:10:04.493Z,5.65
2019-02-06T22:11:09.361Z,5.65
2019-02-06T22:12:16.146Z,5.73
2019-02-06T22:13:20.453Z,5.73
2019-02-06T22:14:25.043Z,5.75
2019-02-06T22:15:30.269Z,5.77
2019-02-06T22:16:36.159Z,5.81
2019-02-06T22:17:42.839Z,5.80
2019-02-06T22:18:47.555Z,5.77
2019-02-06T22:19:52.260Z,5.80
2019-02-06T22:20:56.774Z,5.70
2019-02-06T22:22:03.387Z,5.73
2019-02-06T22:23:08.106Z,5.74
2019-02-06T22:24:14.602Z,5.81
2019-02-06T22:25:19.138Z,5.75
2019-02-06T22:26:23.943Z,5.78
2019-02-06T22:27:28.518Z,5.85
2019-02-06T22:28:35.018Z,5.80
2019-02-06T22:29:39.896Z,5.88
2019-02-06T22:30:44.268Z,5.83
2019-02-06T22:31:48.740Z,5.81
2019-02-06T22:32:53.364Z,5.83
2019-02-06T22:33:57.956Z,5.87
2019-02-06T22:35:04.424Z,5.84
2019-02-06T22:36:11.367Z,5.85
2019-02-06T22:37:15.015Z,5.83
2019-02-06T22:38:20.343Z,5.78
2019-02-06T22:39:25.503Z,5.92
2019-02-06T22:40:31.824Z,5.80
2019-02-06T22:41:33.220Z,5.85
2019-02-06T22:42:37.165Z,5.92
2019-02-06T22:43:42.014Z,5.85
2019-02-06T22:44:45.355Z,5.87
2019-02-06T22:45:50.263Z,5.83
2019-02-06T22:46:55.003Z,5.84
2019-02-06T22:47:59.659Z,5.84
2019-02-06T22:49:06.122Z,5.80
2019-02-06T22:50:07.520Z,5.77
2019-02-06T22:51:08.872Z,5.84
2019-02-06T22:52:10.267Z,5.78
2019-02-06T22:53:11.696Z,5.83
2019-02-06T22:54:14.139Z,5.83
2019-02-06T22:55:15.558Z,5.81
2019-02-06T22:56:16.958Z,5.88
2019-02-06T22:57:18.400Z,5.81
2019-02-06T22:58:19.864Z,5.80
2019-02-06T22:59:21.278Z,5.81
2019-02-06T23:00:24.242Z,5.93
2019-02-06T23:01:24.058Z,5.84
2019-02-06T23:02:25.477Z,5.92
2019-02-06T23:03:26.912Z,5.83
2019-02-06T23:04:28.349Z,5.81
2019-02-06T23:05:29.771Z,5.87
2019-02-06T23:06:31.167Z,5.80
2019-02-06T23:07:32.607Z,5.88
2019-02-06T23:08:34.013Z,5.84
2019-02-06T23:09:35.396Z,5.77
2019-02-06T23:10:36.918Z,5.78
2019-02-06T23:11:38.111Z,5.80
2019-02-06T23:12:39.506Z,5.87
2019-02-06T23:13:40.911Z,5.83
2019-02-06T23:14:42.309Z,5.88
2019-02-06T23:15:43.703Z,5.78
2019-02-06T23:16:45.133Z,5.80
2019-02-06T23:17:46.561Z,5.78
2019-02-06T23:18:47.961Z,5.78
2019-02-06T23:19:49.346Z,5.75
2019-02-06T23:20:50.762Z,5.75
2019-02-06T23:21:52.183Z,5.74
2019-02-06T23:22:53.598Z,5.78
2019-02-06T23:23:55.018Z,5.75
2019-02-06T23:24:56.428Z,5.77
2019-02-06T23:25:58.780Z,5.75
2019-02-06T23:27:00.176Z,5.73
2019-02-06T23:28:01.578Z,5.69
2019-02-06T23:29:02.950Z,5.77
2019-02-06T23:30:04.340Z,5.78
2019-02-06T23:31:05.747Z,5.66
2019-02-06T23:32:07.147Z,5.74
2019-02-06T23:33:08.564Z,5.80
2019-02-06T23:34:09.975Z,5.74
2019-02-06T23:35:11.413Z,5.73
2019-02-06T23:36:12.806Z,5.83
2019-02-06T23:37:14.208Z,5.81
2019-02-06T23:38:15.617Z,5.74
2019-02-06T23:39:17.003Z,5.77
2019-02-06T23:40:18.444Z,5.74
2019-02-06T23:41:19.841Z,5.77
2019-02-06T23:42:21.246Z,5.75
2019-02-06T23:43:22.660Z,5.80
2019-02-06T23:44:28.929Z,5.81
2019-02-06T23:45:25.452Z,5.81
2019-02-06T23:46:26.890Z,5.74
2019-02-06T23:47:28.294Z,5.81
2019-02-06T23:48:29.666Z,5.78
2019-02-06T23:49:31.081Z,5.78
2019-02-06T23:50:32.500Z,5.81
2019-02-06T23:51:33.906Z,5.73
2019-02-06T23:52:35.308Z,5.75
2019-02-06T23:53:36.717Z,5.83
2019-02-06T23:54:38.158Z,5.83
2019-02-06T23:55:39.566Z,5.78
2019-02-06T23:56:40.972Z,5.70
2019-02-06T23:57:42.361Z,5.77
2019-02-06T23:58:43.762Z,5.80
2019-02-06T23:59:45.169Z,5.81
